createdAt,value
2018-09-20T00:00:39.445Z,8.60
2018-09-20T00:03:07.735Z,8.03
2018-09-20T00:05:35.989Z,7.83
2018-09-20T00:08:04.231Z,8.00
2018-09-20T00:10:32.467Z,8.70
2018-09-20T00:13:00.704Z,8.00
2018-09-20T00:15:28.944Z,8.47
2018-09-20T00:17:57.200Z,8.07
2018-09-20T00:20:25.433Z,7.97
2018-09-20T00:22:53.664Z,8.63
2018-09-20T00:25:21.937Z,8.13
2018-09-20T00:27:50.180Z,8.90
2018-09-20T00:30:18.437Z,8.53
2018-09-20T00:32:46.687Z,8.37
2018-09-20T00:35:14.940Z,8.93
2018-09-20T00:37:43.181Z,9.10
2018-09-20T00:40:11.432Z,9.10
2018-09-20T00:42:39.673Z,9.03
2018-09-20T00:45:07.966Z,9.63
2018-09-20T00:47:36.217Z,9.03
2018-09-20T00:50:04.486Z,9.33
2018-09-20T00:52:32.720Z,9.53
2018-09-20T00:55:00.951Z,9.60
2018-09-20T00:57:29.217Z,9.50
2018-09-20T00:59:57.465Z,8.60
2018-09-20T01:02:25.715Z,8.33
2018-09-20T01:04:53.963Z,7.87
2018-09-20T01:07:22.196Z,7.87
2018-09-20T01:09:50.432Z,8.43
2018-09-20T01:12:18.673Z,8.90
2018-09-20T01:14:46.906Z,9.00
2018-09-20T01:17:15.145Z,8.13
2018-09-20T01:19:43.385Z,8.07
2018-09-20T01:22:11.632Z,9.40
2018-09-20T01:24:39.868Z,10.20
2018-09-20T01:27:08.113Z,10.87
2018-09-20T01:29:36.381Z,10.77
2018-09-20T01:32:04.616Z,9.67
2018-09-20T01:34:32.852Z,9.73
2018-09-20T01:37:01.106Z,9.90
2018-09-20T01:39:29.350Z,10.27
2018-09-20T01:41:57.593Z,9.40
2018-09-20T01:44:25.816Z,9.83
2018-09-20T01:46:54.046Z,9.57
2018-09-20T01:49:22.290Z,10.87
2018-09-20T01:51:50.801Z,10.33
2018-09-20T01:54:19.043Z,10.23
2018-09-20T01:56:47.289Z,10.03
2018-09-20T01:59:15.530Z,10.67
2018-09-20T02:01:43.769Z,10.97
2018-09-20T02:04:12.011Z,10.33
2018-09-20T02:06:40.237Z,9.93
2018-09-20T02:09:09.517Z,11.00
2018-09-20T02:11:37.760Z,10.70
2018-09-20T02:14:06.480Z,10.50
2018-09-20T02:16:34.717Z,11.37
2018-09-20T02:19:02.948Z,10.87
2018-09-20T02:21:31.185Z,10.93
2018-09-20T02:23:59.424Z,10.83
2018-09-20T02:26:27.660Z,10.80
2018-09-20T02:28:55.910Z,11.53
2018-09-20T02:31:24.264Z,11.60
2018-09-20T02:33:52.502Z,11.63
2018-09-20T02:36:20.737Z,11.60
2018-09-20T02:38:48.989Z,12.80
2018-09-20T02:41:17.234Z,11.53
2018-09-20T02:43:45.609Z,10.93
2018-09-20T02:46:13.866Z,12.20
2018-09-20T02:48:42.100Z,11.37
2018-09-20T02:51:10.342Z,11.23
2018-09-20T02:53:38.595Z,11.67
2018-09-20T02:56:07.058Z,11.37
2018-09-20T02:58:35.289Z,11.13
2018-09-20T03:01:03.535Z,11.47
2018-09-20T03:03:31.769Z,12.23
2018-09-20T03:06:00.012Z,11.20
2018-09-20T03:08:28.256Z,12.53
2018-09-20T03:10:56.484Z,11.57
2018-09-20T03:13:24.730Z,11.30
2018-09-20T03:15:52.965Z,11.20
2018-09-20T03:18:21.200Z,11.40
2018-09-20T03:20:49.444Z,11.17
2018-09-20T03:23:17.701Z,11.37
2018-09-20T03:25:45.944Z,11.43
2018-09-20T03:28:14.182Z,11.23
2018-09-20T03:30:42.480Z,11.00
2018-09-20T03:33:10.702Z,11.30
2018-09-20T03:35:38.949Z,11.40
2018-09-20T03:38:07.181Z,11.23
2018-09-20T03:40:35.441Z,11.53
2018-09-20T03:43:03.761Z,11.57
2018-09-20T03:45:32.021Z,11.47
2018-09-20T03:48:00.270Z,11.00
2018-09-20T03:50:28.516Z,11.90
2018-09-20T03:52:56.788Z,11.37
2018-09-20T03:55:25.030Z,11.43
2018-09-20T03:57:53.273Z,11.00
2018-09-20T04:00:21.521Z,11.90
2018-09-20T04:02:49.768Z,12.23
2018-09-20T04:05:18.066Z,12.23
2018-09-20T04:07:46.324Z,11.83
2018-09-20T04:10:14.665Z,12.13
2018-09-20T04:12:42.946Z,12.23
2018-09-20T04:15:11.238Z,12.07
2018-09-20T04:17:39.506Z,11.43
2018-09-20T04:20:08.208Z,12.63
2018-09-20T04:22:36.716Z,12.47
2018-09-20T04:25:05.298Z,12.37
2018-09-20T04:27:33.585Z,13.57
2018-09-20T04:30:01.841Z,13.43
2018-09-20T04:32:30.119Z,13.30
2018-09-20T04:34:58.394Z,13.80
2018-09-20T04:37:26.670Z,13.37
2018-09-20T04:39:55.003Z,14.13
2018-09-20T04:42:23.263Z,13.40
2018-09-20T04:44:51.573Z,13.37
2018-09-20T04:47:20.157Z,13.17
2018-09-20T04:49:48.460Z,13.90
2018-09-20T04:52:16.729Z,12.60
2018-09-20T04:54:45.053Z,12.07
2018-09-20T04:57:13.319Z,11.67
2018-09-20T04:59:41.568Z,10.77
2018-09-20T05:02:09.840Z,10.47
2018-09-20T05:04:38.125Z,10.70
2018-09-20T05:07:06.717Z,10.27
2018-09-20T05:09:35.022Z,10.83
2018-09-20T05:12:03.265Z,11.50
2018-09-20T05:14:31.841Z,11.10
2018-09-20T05:17:00.128Z,10.83
2018-09-20T05:19:28.524Z,12.00
2018-09-20T05:21:57.614Z,11.60
2018-09-20T05:24:25.951Z,12.73
2018-09-20T05:26:54.233Z,12.60
2018-09-20T05:29:22.781Z,12.40
2018-09-20T05:31:51.052Z,13.00
2018-09-20T05:34:19.306Z,12.30
2018-09-20T05:36:47.569Z,13.20
2018-09-20T05:39:15.813Z,12.97
2018-09-20T05:41:44.047Z,12.80
2018-09-20T05:44:12.297Z,12.90
2018-09-20T05:46:41.269Z,12.77
2018-09-20T05:49:09.864Z,11.93
2018-09-20T05:51:38.100Z,12.27
2018-09-20T05:54:06.437Z,11.67
2018-09-20T05:56:34.672Z,12.43
2018-09-20T05:59:02.988Z,11.53
2018-09-20T06:01:31.221Z,12.33
2018-09-20T06:03:59.508Z,12.47
2018-09-20T06:06:27.737Z,11.13
2018-09-20T06:08:55.973Z,11.30
2018-09-20T06:11:24.221Z,11.17
2018-09-20T06:13:52.457Z,11.17
2018-09-20T06:16:20.708Z,9.97
2018-09-20T06:18:48.956Z,9.83
2018-09-20T06:21:17.187Z,10.63
2018-09-20T06:23:45.416Z,10.20
2018-09-20T06:26:13.658Z,11.07
2018-09-20T06:28:41.883Z,9.90
2018-09-20T06:31:10.128Z,10.70
2018-09-20T06:33:38.361Z,10.83
2018-09-20T06:36:06.644Z,10.70
2018-09-20T06:38:34.882Z,10.60
2018-09-20T06:41:03.185Z,10.87
2018-09-20T06:43:31.389Z,12.07
2018-09-20T06:45:59.647Z,13.60
2018-09-20T06:48:27.889Z,11.77
2018-09-20T06:50:56.140Z,12.53
2018-09-20T06:53:24.384Z,10.57
2018-09-20T06:55:52.789Z,12.57
2018-09-20T06:58:21.021Z,12.37
2018-09-20T07:00:49.252Z,11.97
2018-09-20T07:03:17.564Z,12.00
2018-09-20T07:05:45.758Z,11.23
2018-09-20T07:08:14.001Z,10.33
2018-09-20T07:10:42.242Z,10.77
2018-09-20T07:13:10.468Z,9.93
2018-09-20T07:15:38.710Z,10.00
2018-09-20T07:18:06.952Z,9.07
2018-09-20T07:20:35.180Z,9.87
2018-09-20T07:23:03.409Z,9.77
2018-09-20T07:25:31.742Z,8.83
2018-09-20T07:27:59.915Z,8.73
2018-09-20T07:30:28.148Z,9.20
2018-09-20T07:32:56.376Z,8.50
2018-09-20T07:35:24.609Z,8.30
2018-09-20T07:37:52.848Z,8.55
2018-09-20T07:40:21.117Z,8.50
2018-09-20T07:42:49.371Z,7.92
2018-09-20T07:45:17.617Z,8.03
2018-09-20T07:47:45.852Z,8.88
2018-09-20T07:50:14.090Z,8.65
2018-09-20T07:52:42.325Z,7.33
2018-09-20T07:55:10.556Z,7.40
2018-09-20T07:57:38.797Z,6.25
2018-09-20T08:00:07.065Z,6.70
2018-09-20T08:02:35.312Z,7.83
2018-09-20T08:05:03.572Z,7.37
2018-09-20T08:07:31.816Z,6.50
2018-09-20T08:10:00.045Z,6.67
2018-09-20T08:12:28.341Z,6.55
2018-09-20T08:14:56.605Z,7.50
2018-09-20T08:17:24.836Z,7.22
2018-09-20T08:19:53.337Z,6.45
2018-09-20T08:22:21.579Z,6.17
2018-09-20T08:24:49.826Z,6.67
2018-09-20T08:27:18.062Z,5.83
2018-09-20T08:29:46.293Z,6.62
2018-09-20T08:32:14.568Z,6.40
2018-09-20T08:34:42.793Z,6.15
2018-09-20T08:37:11.105Z,6.17
2018-09-20T08:39:39.298Z,6.37
2018-09-20T08:42:07.600Z,6.10
2018-09-20T08:44:35.808Z,5.72
2018-09-20T08:47:04.072Z,6.00
2018-09-20T08:49:32.396Z,6.75
2018-09-20T08:52:00.616Z,5.97
2018-09-20T08:54:28.864Z,5.72
2018-09-20T08:56:57.156Z,6.17
2018-09-20T08:59:25.391Z,5.80
2018-09-20T09:01:54.073Z,6.20
2018-09-20T09:04:22.367Z,5.85
2018-09-20T09:06:50.718Z,6.60
2018-09-20T09:09:18.936Z,5.53
2018-09-20T09:11:47.162Z,5.53
2018-09-20T09:14:15.403Z,5.70
2018-09-20T09:16:43.633Z,5.80
2018-09-20T09:19:11.906Z,5.42
2018-09-20T09:21:40.137Z,5.90
2018-09-20T09:24:08.385Z,5.42
2018-09-20T09:26:36.616Z,5.42
2018-09-20T09:29:04.852Z,6.08
2018-09-20T09:31:33.080Z,5.47
2018-09-20T09:34:01.328Z,5.40
2018-09-20T09:36:29.917Z,4.80
2018-09-20T09:38:58.189Z,4.83
2018-09-20T09:41:26.445Z,5.03
2018-09-20T09:43:54.684Z,4.60
2018-09-20T09:46:22.908Z,5.33
2018-09-20T09:48:51.140Z,5.37
2018-09-20T09:51:19.384Z,5.05
2018-09-20T09:53:47.613Z,5.03
2018-09-20T09:56:15.853Z,5.03
2018-09-20T09:58:44.086Z,4.95
2018-09-20T10:01:12.340Z,5.40
2018-09-20T10:03:40.572Z,4.92
2018-09-20T10:06:08.800Z,5.17
2018-09-20T10:08:37.034Z,4.78
2018-09-20T10:11:05.252Z,5.78
2018-09-20T10:13:33.513Z,5.08
2018-09-20T10:16:01.728Z,4.85
2018-09-20T10:18:29.960Z,5.65
2018-09-20T10:20:58.185Z,5.55
2018-09-20T10:23:26.420Z,4.97
2018-09-20T10:25:54.656Z,4.62
2018-09-20T10:28:22.889Z,5.08
2018-09-20T10:30:51.134Z,5.05
2018-09-20T10:33:19.373Z,5.10
2018-09-20T10:35:47.605Z,5.15
2018-09-20T10:38:15.844Z,4.78
2018-09-20T10:40:44.084Z,4.97
2018-09-20T10:43:12.318Z,5.00
2018-09-20T10:45:40.548Z,5.15
2018-09-20T10:48:08.782Z,5.05
2018-09-20T10:50:37.018Z,5.55
2018-09-20T10:53:05.257Z,5.17
2018-09-20T10:55:33.493Z,5.08
2018-09-20T10:58:01.742Z,5.17
2018-09-20T11:00:29.985Z,4.62
2018-09-20T11:02:58.395Z,4.92
2018-09-20T11:05:26.632Z,5.08
2018-09-20T11:07:54.863Z,5.08
2018-09-20T11:10:23.106Z,5.50
2018-09-20T11:12:51.360Z,5.80
2018-09-20T11:15:19.588Z,5.35
2018-09-20T11:17:48.054Z,5.47
2018-09-20T11:20:16.291Z,4.40
2018-09-20T11:22:44.813Z,5.28
2018-09-20T11:25:13.044Z,4.95
2018-09-20T11:27:41.273Z,5.15
2018-09-20T11:30:09.516Z,5.35
2018-09-20T11:32:37.743Z,5.53
2018-09-20T11:35:05.980Z,5.22
2018-09-20T11:37:34.235Z,5.28
2018-09-20T11:40:02.469Z,5.50
2018-09-20T11:42:30.710Z,4.70
2018-09-20T11:44:58.939Z,4.58
2018-09-20T11:47:27.198Z,4.95
2018-09-20T11:49:55.445Z,4.50
2018-09-20T11:52:23.701Z,4.83
2018-09-20T11:54:51.941Z,4.90
2018-09-20T11:57:20.181Z,4.55
2018-09-20T11:59:48.445Z,4.78
2018-09-20T12:02:16.698Z,4.40
2018-09-20T12:04:44.933Z,4.80
2018-09-20T12:07:13.168Z,4.78
2018-09-20T12:09:41.445Z,4.62
2018-09-20T12:12:09.694Z,4.42
2018-09-20T12:14:37.945Z,4.50
2018-09-20T12:17:06.179Z,4.75
2018-09-20T12:19:34.400Z,4.22
2018-09-20T12:22:02.640Z,4.80
2018-09-20T12:24:30.886Z,3.98
2018-09-20T12:26:59.130Z,4.10
2018-09-20T12:29:27.369Z,4.00
2018-09-20T12:31:55.644Z,4.17
2018-09-20T12:34:23.857Z,4.47
2018-09-20T12:36:52.094Z,3.98
2018-09-20T12:39:20.345Z,4.33
2018-09-20T12:41:48.581Z,4.25
2018-09-20T12:44:16.815Z,4.03
2018-09-20T12:46:45.073Z,4.50
2018-09-20T12:49:13.302Z,4.50
2018-09-20T12:51:41.540Z,4.30
2018-09-20T12:54:09.785Z,4.22
2018-09-20T12:56:38.049Z,3.62
2018-09-20T12:59:06.473Z,4.40
2018-09-20T13:01:34.721Z,4.42
2018-09-20T13:04:02.949Z,4.40
2018-09-20T13:06:31.197Z,4.45
2018-09-20T13:08:59.439Z,4.53
2018-09-20T13:11:27.673Z,4.25
2018-09-20T13:13:55.921Z,4.33
2018-09-20T13:16:24.157Z,4.37
2018-09-20T13:18:52.389Z,4.08
2018-09-20T13:21:20.621Z,3.98
2018-09-20T13:23:48.865Z,4.53
2018-09-20T13:26:17.101Z,4.67
2018-09-20T13:28:45.357Z,4.85
2018-09-20T13:31:13.592Z,4.15
2018-09-20T13:33:41.828Z,4.87
2018-09-20T13:36:10.069Z,4.33
2018-09-20T13:38:38.337Z,3.90
2018-09-20T13:41:06.581Z,4.40
2018-09-20T13:43:34.904Z,4.35
2018-09-20T13:46:03.103Z,4.37
2018-09-20T13:48:31.337Z,4.00
2018-09-20T13:50:59.568Z,4.40
2018-09-20T13:53:27.805Z,4.87
2018-09-20T13:55:56.033Z,4.60
2018-09-20T13:58:24.329Z,4.85
2018-09-20T14:00:52.622Z,4.50
2018-09-20T14:03:20.853Z,4.65
2018-09-20T14:05:49.149Z,4.87
2018-09-20T14:08:17.361Z,4.50
2018-09-20T14:10:45.600Z,4.30
2018-09-20T14:13:13.827Z,4.12
2018-09-20T14:15:42.113Z,5.08
2018-09-20T14:18:10.376Z,4.58
2018-09-20T14:20:38.713Z,4.28
2018-09-20T14:23:06.961Z,4.25
2018-09-20T14:25:35.305Z,4.55
2018-09-20T14:28:03.576Z,4.35
2018-09-20T14:30:31.809Z,4.30
2018-09-20T14:33:00.126Z,3.80
2018-09-20T14:35:28.361Z,4.12
2018-09-20T14:37:56.604Z,4.60
2018-09-20T14:40:24.837Z,4.20
2018-09-20T14:42:53.162Z,4.42
2018-09-20T14:45:21.404Z,3.85
2018-09-20T14:47:49.637Z,3.85
2018-09-20T14:50:17.890Z,4.30
2018-09-20T14:52:46.166Z,4.05
2018-09-20T14:55:14.361Z,4.50
2018-09-20T14:57:42.609Z,4.03
2018-09-20T15:00:10.885Z,3.92
2018-09-20T15:02:39.328Z,3.95
2018-09-20T15:05:07.571Z,4.20
2018-09-20T15:07:36.082Z,3.67
2018-09-20T15:10:04.466Z,3.98
2018-09-20T15:12:32.757Z,4.08
2018-09-20T15:15:01.118Z,3.75
2018-09-20T15:17:29.373Z,4.47
2018-09-20T15:19:57.633Z,3.83
2018-09-20T15:22:26.400Z,3.87
2018-09-20T15:24:54.677Z,4.10
2018-09-20T15:27:23.117Z,4.70
2018-09-20T15:29:51.381Z,4.17
2018-09-20T15:32:19.772Z,4.40
2018-09-20T15:34:48.049Z,4.35
2018-09-20T15:37:16.392Z,4.17
2018-09-20T15:39:45.226Z,4.10
2018-09-20T15:42:13.582Z,4.40
2018-09-20T15:44:41.820Z,4.10
2018-09-20T15:47:10.088Z,4.30
2018-09-20T15:49:38.365Z,4.05
2018-09-20T15:52:06.606Z,3.85
2018-09-20T15:54:34.831Z,4.00
2018-09-20T15:57:03.082Z,4.20
2018-09-20T15:59:31.653Z,3.95
2018-09-20T16:01:59.893Z,4.12
2018-09-20T16:04:28.129Z,4.00
2018-09-20T16:06:56.370Z,4.25
2018-09-20T16:09:24.621Z,4.50
2018-09-20T16:11:52.867Z,4.03
2018-09-20T16:14:21.175Z,4.00
2018-09-20T16:16:49.353Z,4.50
2018-09-20T16:19:18.048Z,4.10
2018-09-20T16:21:46.289Z,4.60
2018-09-20T16:24:14.541Z,4.08
2018-09-20T16:26:42.786Z,4.53
2018-09-20T16:29:16.279Z,4.28
2018-09-20T16:31:57.848Z,4.33
2018-09-20T16:35:40.021Z,4.22
2018-09-20T16:38:22.048Z,3.90
2018-09-20T16:40:51.427Z,4.30
2018-09-20T16:43:19.736Z,4.45
2018-09-20T16:45:47.998Z,4.55
2018-09-20T16:48:16.296Z,4.53
2018-09-20T16:50:44.645Z,4.62
2018-09-20T16:53:13.003Z,5.00
2018-09-20T16:55:41.258Z,4.30
2018-09-20T16:58:11.987Z,4.30
2018-09-20T17:00:43.966Z,4.70
2018-09-20T17:03:12.402Z,4.40
2018-09-20T17:05:40.683Z,4.37
2018-09-20T17:08:08.944Z,4.23
2018-09-20T17:10:37.209Z,4.57
2018-09-20T17:13:05.542Z,4.50
2018-09-20T17:15:33.940Z,4.43
2018-09-20T17:18:03.146Z,4.40
2018-09-20T17:20:31.435Z,4.73
2018-09-20T17:23:00.895Z,4.37
2018-09-20T17:25:29.627Z,4.50
2018-09-20T17:27:57.946Z,5.07
2018-09-20T17:30:26.392Z,4.00
2018-09-20T17:32:54.689Z,4.30
2018-09-20T17:35:23.190Z,4.77
2018-09-20T17:37:51.992Z,4.53
2018-09-20T17:40:21.401Z,4.83
2018-09-20T17:42:51.645Z,4.50
2018-09-20T17:45:19.899Z,5.10
2018-09-20T17:47:48.145Z,4.80
2018-09-20T17:50:16.394Z,5.13
2018-09-20T17:52:44.873Z,4.70
2018-09-20T17:55:13.349Z,4.77
2018-09-20T17:57:41.938Z,5.03
2018-09-20T18:00:10.228Z,5.27
2018-09-20T18:02:38.471Z,5.17
2018-09-20T18:05:37.355Z,4.67
2018-09-20T18:08:05.651Z,5.33
2018-09-20T18:10:33.903Z,5.37
2018-09-20T18:13:02.166Z,5.70
2018-09-20T18:15:30.424Z,5.20
2018-09-20T18:17:58.718Z,5.80
2018-09-20T18:20:26.904Z,6.10
2018-09-20T18:22:55.135Z,5.83
2018-09-20T18:25:23.430Z,5.47
2018-09-20T18:27:51.685Z,5.73
2018-09-20T18:30:19.933Z,5.50
2018-09-20T18:32:48.183Z,5.70
2018-09-20T18:35:17.493Z,5.80
2018-09-20T18:37:46.038Z,5.53
2018-09-20T18:40:14.274Z,5.97
2018-09-20T18:42:42.640Z,5.53
2018-09-20T18:45:10.810Z,5.80
2018-09-20T18:47:39.089Z,5.57
2018-09-20T18:50:07.407Z,5.20
2018-09-20T18:52:35.601Z,6.00
2018-09-20T18:55:04.125Z,5.53
2018-09-20T18:57:32.366Z,6.10
2018-09-20T19:00:00.615Z,6.30
2018-09-20T19:02:28.906Z,6.23
2018-09-20T19:04:57.291Z,5.60
2018-09-20T19:07:25.597Z,6.30
2018-09-20T19:09:53.841Z,5.63
2018-09-20T19:12:22.117Z,6.47
2018-09-20T19:14:50.446Z,6.27
2018-09-20T19:17:18.713Z,6.20
2018-09-20T19:19:46.953Z,6.27
2018-09-20T19:22:15.199Z,6.43
2018-09-20T19:24:43.445Z,6.80
2018-09-20T19:27:11.690Z,6.57
2018-09-20T19:29:39.972Z,6.70
2018-09-20T19:32:08.238Z,6.13
2018-09-20T19:34:36.530Z,6.57
2018-09-20T19:37:04.818Z,7.30
2018-09-20T19:39:33.078Z,7.17
2018-09-20T19:42:01.409Z,6.47
2018-09-20T19:44:29.723Z,6.73
2018-09-20T19:46:58.013Z,6.90
2018-09-20T19:49:26.260Z,6.67
2018-09-20T19:51:54.540Z,6.83
2018-09-20T19:54:22.783Z,6.77
2018-09-20T19:56:51.027Z,6.77
2018-09-20T19:59:19.278Z,7.00
2018-09-20T20:01:47.534Z,6.97
2018-09-20T20:04:15.793Z,7.10
2018-09-20T20:06:44.042Z,7.17
2018-09-20T20:09:13.625Z,7.77
2018-09-20T20:11:42.517Z,6.60
2018-09-20T20:14:10.890Z,6.53
2018-09-20T20:16:39.490Z,6.80
2018-09-20T20:19:08.187Z,7.10
2018-09-20T20:21:36.446Z,7.00
2018-09-20T20:24:05.192Z,7.30
2018-09-20T20:26:33.426Z,7.53
2018-09-20T20:29:01.674Z,7.33
2018-09-20T20:31:29.914Z,7.47
2018-09-20T20:33:58.145Z,7.60
2018-09-20T20:36:26.921Z,8.33
2018-09-20T20:38:55.617Z,8.57
2018-09-20T20:41:23.866Z,8.57
2018-09-20T20:43:52.299Z,7.97
2018-09-20T20:46:20.536Z,8.00
2018-09-20T20:48:48.785Z,7.97
2018-09-20T20:51:18.115Z,8.53
2018-09-20T20:53:46.569Z,8.10
2018-09-20T20:56:15.181Z,8.03
2018-09-20T20:58:43.440Z,8.33
2018-09-20T21:01:15.914Z,8.17
2018-09-20T21:03:44.177Z,8.97
2018-09-20T21:06:12.506Z,8.83
2018-09-20T21:08:40.910Z,9.00
2018-09-20T21:11:09.296Z,8.57
2018-09-20T21:13:37.546Z,8.67
2018-09-20T21:16:05.874Z,8.60
2018-09-20T21:18:34.123Z,8.63
2018-09-20T21:21:02.390Z,8.57
2018-09-20T21:23:30.642Z,8.80
2018-09-20T21:25:58.890Z,8.90
2018-09-20T21:28:27.145Z,9.07
2018-09-20T21:30:55.477Z,8.80
2018-09-20T21:33:23.725Z,9.33
2018-09-20T21:35:51.988Z,9.57
2018-09-20T21:38:20.250Z,8.50
2018-09-20T21:40:48.481Z,8.87
2018-09-20T21:43:16.741Z,8.40
2018-09-20T21:45:44.979Z,8.83
2018-09-20T21:48:13.327Z,8.07
2018-09-20T21:50:41.566Z,9.00
2018-09-20T21:53:09.820Z,9.80
2018-09-20T21:55:38.173Z,9.87
2018-09-20T21:58:06.409Z,9.67
2018-09-20T22:00:34.658Z,9.57
2018-09-20T22:03:03.885Z,9.37
2018-09-20T22:05:33.387Z,9.47
2018-09-20T22:08:01.653Z,8.87
2018-09-20T22:10:30.171Z,8.83
2018-09-20T22:12:58.770Z,9.20
2018-09-20T22:15:28.173Z,9.97
2018-09-20T22:17:56.977Z,9.60
2018-09-20T22:20:27.014Z,9.40
2018-09-20T22:22:55.271Z,8.80
2018-09-20T22:25:23.525Z,9.43
2018-09-20T22:27:51.761Z,8.77
2018-09-20T22:30:19.998Z,9.63
2018-09-20T22:32:48.464Z,9.27
2018-09-20T22:35:16.731Z,10.00
2018-09-20T22:37:44.962Z,9.47
2018-09-20T22:40:13.206Z,9.27
2018-09-20T22:42:41.469Z,9.17
2018-09-20T22:45:09.709Z,9.27
2018-09-20T22:47:37.942Z,9.03
2018-09-20T22:50:06.174Z,8.90
2018-09-20T22:52:34.413Z,9.03
2018-09-20T22:55:02.665Z,9.37
2018-09-20T22:57:30.921Z,8.70
2018-09-20T22:59:59.153Z,9.30
2018-09-20T23:02:27.464Z,9.07
2018-09-20T23:04:55.717Z,8.67
2018-09-20T23:07:23.957Z,9.23
2018-09-20T23:09:52.197Z,8.80
2018-09-20T23:12:20.435Z,9.70
2018-09-20T23:14:48.697Z,9.63
2018-09-20T23:17:16.932Z,8.97
2018-09-20T23:19:45.203Z,9.07
2018-09-20T23:22:13.440Z,9.70
2018-09-20T23:24:41.665Z,9.17
2018-09-20T23:27:09.893Z,9.27
2018-09-20T23:29:38.131Z,9.47
2018-09-20T23:32:06.410Z,9.60
2018-09-20T23:34:34.674Z,9.97
2018-09-20T23:37:02.933Z,10.03
2018-09-20T23:39:31.189Z,10.03
2018-09-20T23:41:59.429Z,9.80
2018-09-20T23:44:27.664Z,9.63
2018-09-20T23:46:55.913Z,9.37
2018-09-20T23:49:24.227Z,8.97
2018-09-20T23:51:52.481Z,9.23
2018-09-20T23:54:20.723Z,9.23
2018-09-20T23:56:49.294Z,9.10
2018-09-20T23:59:17.533Z,9.30
